createdAt,value
2022-08-22T00:02:19.892Z,18.98
2022-08-22T00:02:58.170Z,19.72
2022-08-22T00:02:58.944Z,19.17
2022-08-22T00:03:09.241Z,20.04
2022-08-22T00:03:10.287Z,19.31
2022-08-22T00:05:38.424Z,18.95
2022-08-22T00:09:02.582Z,18.96
2022-08-22T00:12:22.513Z,19.02
2022-08-22T00:15:43.013Z,19.02
2022-08-22T00:19:07.228Z,18.97
2022-08-22T00:22:24.342Z,18.93
2022-08-22T00:25:45.452Z,18.93
2022-08-22T00:29:02.191Z,18.93
2022-08-22T00:32:20.504Z,18.91
2022-08-22T00:35:40.480Z,18.95
2022-08-22T00:39:01.857Z,18.96
2022-08-22T00:42:41.290Z,18.93
2022-08-22T00:46:18.388Z,18.89
2022-08-22T00:49:43.763Z,18.88
2022-08-22T00:53:26.704Z,18.90
2022-08-22T00:57:04.739Z,18.84
2022-08-22T01:00:20.683Z,18.88
2022-08-22T01:04:07.431Z,18.95
2022-08-22T01:07:38.362Z,18.88
2022-08-22T01:11:06.313Z,18.80
2022-08-22T01:14:34.533Z,18.76
2022-08-22T01:18:32.479Z,18.79
2022-08-22T01:22:13.437Z,18.78
2022-08-22T01:26:01.907Z,18.83
2022-08-22T01:29:46.915Z,18.81
2022-08-22T01:33:24.590Z,18.80
2022-08-22T01:37:13.042Z,18.80
2022-08-22T01:41:06.286Z,18.88
2022-08-22T01:44:51.654Z,18.84
2022-08-22T01:48:09.644Z,18.80
2022-08-22T01:51:26.945Z,18.77
2022-08-22T01:54:50.014Z,18.75
2022-08-22T01:58:03.671Z,18.73
2022-08-22T02:01:26.828Z,18.79
2022-08-22T02:04:43.363Z,18.78
2022-08-22T02:08:00.687Z,18.72
2022-08-22T02:11:34.762Z,18.69
2022-08-22T02:14:53.494Z,18.65
2022-08-22T02:18:18.675Z,18.61
2022-08-22T02:21:41.974Z,18.63
2022-08-22T02:25:00.800Z,18.65
2022-08-22T02:28:14.857Z,18.67
2022-08-22T02:31:35.456Z,18.66
2022-08-22T02:34:54.055Z,18.67
2022-08-22T02:38:14.116Z,18.63
2022-08-22T02:41:31.664Z,18.57
2022-08-22T02:44:53.890Z,18.54
2022-08-22T02:48:12.525Z,18.56
2022-08-22T02:51:28.002Z,18.55
2022-08-22T02:54:43.791Z,18.59
2022-08-22T02:58:01.901Z,18.63
2022-08-22T03:01:40.948Z,18.60
2022-08-22T03:04:56.342Z,18.59
2022-08-22T03:08:14.644Z,18.57
2022-08-22T03:11:29.974Z,18.57
2022-08-22T03:14:45.740Z,18.50
2022-08-22T03:18:07.870Z,18.46
2022-08-22T03:21:25.368Z,18.48
2022-08-22T03:24:45.419Z,18.45
2022-08-22T03:28:01.227Z,18.45
2022-08-22T03:31:16.907Z,18.45
2022-08-22T03:34:28.911Z,18.40
2022-08-22T03:37:42.104Z,18.42
2022-08-22T03:41:10.544Z,18.48
2022-08-22T03:44:48.011Z,18.44
2022-08-22T03:48:36.031Z,18.43
2022-08-22T03:52:04.904Z,18.38
2022-08-22T03:55:27.125Z,18.36
2022-08-22T03:59:01.825Z,18.33
2022-08-22T04:02:45.851Z,18.37
2022-08-22T04:06:32.881Z,18.36
2022-08-22T04:10:07.968Z,18.34
2022-08-22T04:13:41.327Z,18.35
2022-08-22T04:17:21.208Z,18.35
2022-08-22T04:21:00.564Z,18.35
2022-08-22T04:24:28.938Z,18.40
2022-08-22T04:27:44.295Z,18.31
2022-08-22T04:31:00.670Z,18.30
2022-08-22T04:34:17.791Z,18.32
2022-08-22T04:37:37.555Z,18.31
2022-08-22T04:40:53.231Z,18.30
2022-08-22T04:44:09.205Z,18.29
2022-08-22T04:47:31.525Z,18.26
2022-08-22T04:50:46.805Z,18.27
2022-08-22T04:54:14.998Z,18.29
2022-08-22T04:57:33.576Z,18.31
2022-08-22T05:00:55.298Z,18.26
2022-08-22T05:04:09.802Z,18.26
2022-08-22T05:07:26.019Z,18.26
2022-08-22T05:10:39.823Z,18.30
2022-08-22T05:13:53.856Z,18.33
2022-08-22T05:17:08.412Z,18.31
2022-08-22T05:20:23.845Z,18.26
2022-08-22T05:23:38.027Z,18.29
2022-08-22T05:26:53.216Z,18.29
2022-08-22T05:30:09.011Z,18.32
2022-08-22T05:33:27.761Z,18.43
2022-08-22T05:36:41.873Z,18.42
2022-08-22T05:39:56.055Z,18.45
2022-08-22T05:43:11.193Z,18.50
2022-08-22T05:46:37.214Z,18.51
2022-08-22T05:49:56.930Z,18.55
2022-08-22T05:53:11.668Z,18.61
2022-08-22T05:56:31.769Z,18.57
2022-08-22T05:59:46.072Z,18.56
2022-08-22T06:03:10.519Z,18.59
2022-08-22T06:06:24.101Z,18.57
2022-08-22T06:09:55.930Z,18.58
2022-08-22T06:13:12.805Z,18.56
2022-08-22T06:16:30.950Z,18.59
2022-08-22T06:19:44.112Z,18.61
2022-08-22T06:23:03.763Z,18.64
2022-08-22T06:26:20.624Z,18.72
2022-08-22T06:29:37.369Z,18.77
2022-08-22T06:33:00.095Z,18.86
2022-08-22T06:36:33.994Z,18.83
2022-08-22T06:39:50.054Z,18.88
2022-08-22T06:43:00.631Z,18.99
2022-08-22T06:46:16.240Z,19.02
2022-08-22T06:49:29.446Z,19.02
2022-08-22T06:52:52.783Z,19.11
2022-08-22T06:56:05.697Z,19.26
2022-08-22T06:59:19.417Z,19.38
2022-08-22T07:02:37.756Z,19.42
2022-08-22T07:05:48.196Z,19.48
2022-08-22T07:08:59.334Z,19.58
2022-08-22T07:12:20.089Z,19.78
2022-08-22T07:15:35.430Z,19.89
2022-08-22T07:18:51.141Z,20.09
2022-08-22T07:22:12.730Z,20.39
2022-08-22T07:25:24.531Z,20.59
2022-08-22T07:28:50.850Z,20.74
2022-08-22T07:32:10.939Z,20.86
2022-08-22T07:35:24.114Z,20.94
2022-08-22T07:38:42.956Z,20.91
2022-08-22T07:42:03.703Z,21.01
2022-08-22T07:45:20.607Z,21.00
2022-08-22T07:48:48.501Z,21.33
2022-08-22T07:52:10.855Z,21.47
2022-08-22T07:55:25.187Z,21.61
2022-08-22T07:58:40.274Z,21.79
2022-08-22T08:01:54.545Z,21.85
2022-08-22T08:05:05.827Z,21.88
2022-08-22T08:08:23.006Z,21.82
2022-08-22T08:11:40.431Z,21.91
2022-08-22T08:14:55.819Z,22.21
2022-08-22T08:18:13.184Z,24.37
2022-08-22T08:21:30.588Z,24.71
2022-08-22T08:24:44.002Z,24.83
2022-08-22T08:28:15.853Z,24.63
2022-08-22T08:31:36.660Z,23.78
2022-08-22T08:34:50.141Z,23.48
2022-08-22T08:38:07.746Z,23.28
2022-08-22T08:41:37.509Z,22.97
2022-08-22T08:45:17.486Z,22.75
2022-08-22T08:48:51.782Z,23.09
2022-08-22T08:52:52.772Z,23.23
2022-08-22T08:56:17.766Z,23.33
2022-08-22T08:59:45.974Z,23.57
2022-08-22T09:03:08.264Z,23.76
2022-08-22T09:06:42.582Z,24.02
2022-08-22T09:10:16.516Z,23.83
2022-08-22T09:13:50.063Z,23.85
2022-08-22T09:17:23.276Z,24.03
2022-08-22T09:20:56.804Z,24.29
2022-08-22T09:24:46.690Z,24.45
2022-08-22T09:28:03.436Z,24.45
2022-08-22T09:31:47.725Z,24.24
2022-08-22T09:35:08.877Z,24.23
2022-08-22T09:38:48.044Z,24.35
2022-08-22T09:42:07.987Z,24.34
2022-08-22T09:45:39.012Z,24.50
2022-08-22T09:49:12.745Z,24.51
2022-08-22T09:52:44.504Z,24.66
2022-08-22T09:56:11.606Z,24.56
2022-08-22T09:59:38.824Z,24.06
2022-08-22T10:03:02.320Z,23.78
2022-08-22T10:06:19.642Z,23.84
2022-08-22T10:09:41.778Z,24.04
2022-08-22T10:13:10.245Z,24.50
2022-08-22T10:16:28.372Z,24.88
2022-08-22T10:19:43.226Z,24.64
2022-08-22T10:23:04.784Z,24.52
2022-08-22T10:26:37.905Z,24.46
2022-08-22T10:30:03.207Z,24.35
2022-08-22T10:33:20.350Z,24.43
2022-08-22T10:36:40.056Z,24.62
2022-08-22T10:39:58.955Z,24.61
2022-08-22T10:43:12.989Z,24.58
2022-08-22T10:46:30.027Z,24.47
2022-08-22T10:49:47.055Z,24.35
2022-08-22T10:53:30.980Z,24.28
2022-08-22T10:56:49.621Z,24.25
2022-08-22T11:00:09.333Z,24.29
2022-08-22T11:03:24.997Z,24.35
2022-08-22T11:06:45.252Z,24.27
2022-08-22T11:10:04.363Z,24.34
2022-08-22T11:13:21.259Z,24.45
2022-08-22T11:16:54.955Z,24.34
2022-08-22T11:20:19.494Z,24.27
2022-08-22T11:23:44.741Z,24.39
2022-08-22T11:27:03.924Z,24.64
2022-08-22T11:30:21.672Z,24.95
2022-08-22T11:33:46.902Z,25.08
2022-08-22T11:37:11.058Z,24.79
2022-08-22T11:40:31.787Z,24.69
2022-08-22T11:43:54.577Z,24.77
2022-08-22T11:47:12.005Z,24.62
2022-08-22T11:50:35.233Z,24.55
2022-08-22T11:53:52.195Z,24.53
2022-08-22T11:57:08.752Z,24.69
2022-08-22T12:00:27.431Z,24.78
2022-08-22T12:03:58.422Z,25.13
2022-08-22T12:07:14.893Z,25.18
2022-08-22T12:10:31.429Z,25.16
2022-08-22T12:13:50.851Z,25.25
2022-08-22T12:17:55.669Z,25.41
2022-08-22T12:21:44.261Z,25.53
2022-08-22T12:25:09.503Z,25.38
2022-08-22T12:28:32.573Z,25.44
2022-08-22T12:32:10.202Z,25.34
2022-08-22T12:35:30.715Z,25.40
2022-08-22T12:38:55.796Z,25.48
2022-08-22T12:42:18.597Z,25.52
2022-08-22T12:45:41.094Z,25.41
2022-08-22T12:49:11.209Z,25.10
2022-08-22T12:52:38.573Z,24.99
2022-08-22T12:56:03.989Z,25.06
2022-08-22T12:59:23.980Z,25.03
2022-08-22T13:02:39.414Z,24.92
2022-08-22T13:05:56.280Z,24.85
2022-08-22T13:09:19.530Z,24.78
2022-08-22T13:12:36.649Z,24.80
2022-08-22T13:15:58.742Z,24.74
2022-08-22T13:19:13.452Z,24.81
2022-08-22T13:22:27.805Z,24.82
2022-08-22T13:26:03.236Z,24.88
2022-08-22T13:29:27.200Z,24.95
2022-08-22T13:32:44.431Z,25.01
2022-08-22T13:35:58.541Z,25.20
2022-08-22T13:39:26.338Z,25.41
2022-08-22T13:42:47.833Z,25.43
2022-08-22T13:46:02.130Z,25.45
2022-08-22T13:49:18.680Z,25.55
2022-08-22T13:52:38.711Z,25.47
2022-08-22T13:55:51.879Z,25.39
2022-08-22T13:59:09.614Z,25.33
2022-08-22T14:02:38.713Z,25.29
2022-08-22T14:05:59.004Z,25.25
2022-08-22T14:09:38.722Z,25.28
2022-08-22T14:13:17.491Z,25.14
2022-08-22T14:16:33.610Z,25.04
2022-08-22T14:19:58.989Z,25.05
2022-08-22T14:23:15.181Z,24.99
2022-08-22T14:26:32.723Z,24.85
2022-08-22T14:29:50.378Z,24.84
2022-08-22T14:33:09.955Z,24.85
2022-08-22T14:36:24.346Z,24.90
2022-08-22T14:39:42.958Z,24.94
2022-08-22T14:42:59.800Z,25.00
2022-08-22T14:46:14.963Z,25.12
2022-08-22T14:49:31.636Z,25.39
2022-08-22T14:52:45.090Z,25.51
2022-08-22T14:56:00.145Z,25.47
2022-08-22T14:59:15.349Z,25.47
2022-08-22T15:02:28.979Z,25.37
2022-08-22T15:05:50.064Z,25.21
2022-08-22T15:09:01.098Z,25.16
2022-08-22T15:12:26.769Z,25.12
2022-08-22T15:15:41.203Z,25.21
2022-08-22T15:19:23.780Z,25.10
2022-08-22T15:22:36.895Z,25.11
2022-08-22T15:25:59.777Z,25.11
2022-08-22T15:29:20.309Z,25.06
2022-08-22T15:32:36.833Z,25.05
2022-08-22T15:35:55.579Z,24.98
2022-08-22T15:39:30.693Z,24.84
2022-08-22T15:42:45.213Z,24.85
2022-08-22T15:46:18.080Z,24.80
2022-08-22T15:49:31.617Z,24.67
2022-08-22T15:53:14.795Z,24.61
2022-08-22T15:56:30.601Z,24.71
2022-08-22T15:59:53.734Z,24.79
2022-08-22T16:03:09.898Z,24.79
2022-08-22T16:06:56.556Z,24.83
2022-08-22T16:10:34.048Z,24.81
2022-08-22T16:13:47.015Z,24.80
2022-08-22T16:17:02.327Z,24.73
2022-08-22T16:21:01.496Z,24.73
2022-08-22T16:24:36.773Z,24.68
2022-08-22T16:27:56.981Z,24.63
2022-08-22T16:31:21.784Z,24.61
2022-08-22T16:34:42.108Z,24.52
2022-08-22T16:37:52.835Z,24.51
2022-08-22T16:41:05.346Z,24.44
2022-08-22T16:44:41.479Z,24.35
2022-08-22T16:47:58.294Z,24.36
2022-08-22T16:51:14.365Z,24.21
2022-08-22T16:54:43.762Z,24.21
2022-08-22T16:58:06.360Z,24.11
2022-08-22T17:01:24.084Z,24.03
2022-08-22T17:04:44.122Z,24.11
2022-08-22T17:08:09.387Z,24.03
2022-08-22T17:11:33.265Z,24.03
2022-08-22T17:14:55.096Z,24.00
2022-08-22T17:18:36.474Z,23.90
2022-08-22T17:21:54.507Z,23.90
2022-08-22T17:25:20.201Z,23.87
2022-08-22T17:28:39.446Z,23.81
2022-08-22T17:31:56.848Z,23.58
2022-08-22T17:35:20.020Z,23.45
2022-08-22T17:38:47.709Z,23.26
2022-08-22T17:42:10.708Z,23.15
2022-08-22T17:45:47.036Z,23.05
2022-08-22T17:49:03.860Z,22.95
2022-08-22T17:52:20.637Z,22.88
2022-08-22T17:55:37.966Z,22.77
2022-08-22T17:58:55.572Z,22.63
2022-08-22T18:02:16.354Z,22.59
2022-08-22T18:05:30.939Z,22.51
2022-08-22T18:12:25.397Z,22.46
2022-08-22T18:15:43.314Z,22.35
2022-08-22T18:18:58.888Z,22.35
2022-08-22T18:22:14.241Z,22.22
2022-08-22T18:25:35.657Z,22.16
2022-08-22T18:28:52.751Z,22.11
2022-08-22T18:32:11.037Z,22.06
2022-08-22T18:35:28.958Z,22.01
2022-08-22T18:38:49.939Z,21.94
2022-08-22T18:42:07.959Z,21.95
2022-08-22T18:45:43.995Z,21.98
2022-08-22T18:49:14.522Z,21.93
2022-08-22T18:52:40.676Z,21.90
2022-08-22T18:55:56.698Z,21.82
2022-08-22T18:59:23.532Z,21.83
2022-08-22T19:03:01.141Z,21.75
2022-08-22T19:06:38.395Z,21.76
2022-08-22T19:10:09.615Z,21.70
2022-08-22T19:13:44.412Z,21.57
2022-08-22T19:17:27.828Z,21.53
2022-08-22T19:20:58.903Z,21.49
2022-08-22T19:24:32.408Z,21.38
2022-08-22T19:27:44.644Z,21.37
2022-08-22T19:31:22.655Z,21.36
2022-08-22T19:34:46.973Z,21.24
2022-08-22T19:38:01.060Z,21.23
2022-08-22T19:41:45.869Z,21.16
2022-08-22T19:45:03.692Z,21.19
2022-08-22T19:48:15.002Z,21.23
2022-08-22T19:51:28.611Z,21.25
2022-08-22T19:54:50.881Z,21.17
2022-08-22T19:58:09.156Z,21.26
2022-08-22T20:01:36.523Z,21.33
2022-08-22T20:05:02.518Z,21.35
2022-08-22T20:08:31.160Z,21.38
2022-08-22T20:11:46.890Z,21.47
2022-08-22T20:14:58.548Z,21.46
2022-08-22T20:18:12.270Z,21.43
2022-08-22T20:22:03.768Z,21.47
2022-08-22T20:25:42.243Z,21.56
2022-08-22T20:28:53.221Z,21.62
2022-08-22T20:32:05.375Z,21.63
2022-08-22T20:35:21.683Z,21.66
2022-08-22T20:38:39.831Z,21.62
2022-08-22T20:41:55.151Z,21.57
2022-08-22T20:45:12.407Z,21.59
2022-08-22T20:48:23.616Z,21.63
2022-08-22T20:51:35.445Z,21.66
2022-08-22T20:54:59.904Z,21.62
2022-08-22T20:58:22.733Z,21.56
2022-08-22T21:01:34.660Z,21.53
2022-08-22T21:04:53.209Z,21.52
2022-08-22T21:08:07.157Z,21.52
2022-08-22T21:11:51.792Z,21.55
2022-08-22T21:15:03.401Z,21.61
2022-08-22T21:18:25.621Z,21.58
2022-08-22T21:21:36.702Z,21.63
2022-08-22T21:24:47.231Z,21.60
2022-08-22T21:27:59.877Z,21.59
2022-08-22T21:31:14.020Z,21.63
2022-08-22T21:34:28.674Z,21.58
2022-08-22T21:37:41.140Z,21.61
2022-08-22T21:40:52.691Z,21.58
2022-08-22T21:44:28.098Z,21.63
2022-08-22T21:47:40.868Z,21.54
2022-08-22T21:50:52.592Z,21.49
2022-08-22T21:54:28.851Z,21.51
2022-08-22T21:57:40.131Z,21.49
2022-08-22T22:00:52.890Z,21.49
2022-08-22T22:04:03.925Z,21.51
2022-08-22T22:07:15.747Z,21.45
2022-08-22T22:10:26.520Z,21.42
2022-08-22T22:13:37.347Z,21.46
2022-08-22T22:16:48.050Z,21.39
2022-08-22T22:19:58.044Z,21.38
2022-08-22T22:23:10.394Z,21.34
2022-08-22T22:26:21.352Z,21.33
2022-08-22T22:29:32.592Z,21.29
2022-08-22T22:32:43.293Z,21.28
2022-08-22T22:36:00.745Z,21.28
2022-08-22T22:39:12.959Z,21.28
2022-08-22T22:42:23.299Z,21.18
2022-08-22T22:45:33.287Z,21.15
2022-08-22T22:48:43.374Z,21.14
2022-08-22T22:51:53.877Z,21.07
2022-08-22T22:55:07.656Z,21.01
2022-08-22T22:58:17.898Z,21.01
2022-08-22T23:01:28.736Z,20.95
2022-08-22T23:04:41.686Z,20.92
2022-08-22T23:07:52.009Z,20.86
2022-08-22T23:11:10.033Z,20.88
2022-08-22T23:14:21.040Z,20.88
2022-08-22T23:17:31.178Z,20.85
2022-08-22T23:20:41.468Z,20.84
2022-08-22T23:23:52.379Z,20.78
2022-08-22T23:27:04.825Z,20.84
2022-08-22T23:30:15.373Z,20.77
2022-08-22T23:33:25.640Z,20.69
2022-08-22T23:36:36.338Z,20.64
2022-08-22T23:39:46.482Z,20.59
2022-08-22T23:42:59.258Z,20.54
2022-08-22T23:46:10.264Z,20.49
2022-08-22T23:49:20.765Z,20.48
2022-08-22T23:52:31.477Z,20.46
2022-08-22T23:55:42.137Z,20.43
2022-08-22T23:58:54.379Z,20.43
